Vail Spirit — C6BQ8 — position and weather

sailwx.info

Track history (hours):
 
Tides and Currents Weather Stations Pressure Air Temp Water Temp Dewpoint Dewpoint Depression Visibility Wind Speed Wind Dir Waves Ship Positions

Vail Spirit

Last reported at 2018-Feb-17 22:48 UTC. Time now 2018-Feb-17 23:18 UTC.
Position N 52°11' E 003°36'.

Length 275 m; draft 15 m.

Type: Tanker. MMSI: 311000338.

Date/timePositionNaut miles runAvg speedWind from/ knotsBaromVisibWave heightAir tempDewpointWater temp
2018-Feb-17 22:48N 52°11' E 003°36'0 0.0
2018-Feb-17 22:30N 52°11' E 003°36'0 0.0
2018-Feb-17 22:00N 52°11' E 003°36'0 0.0
2018-Feb-17 21:27N 52°11' E 003°36'0 0.0
2018-Feb-17 20:57N 52°11' E 003°36'0 0.0
2018-Feb-17 20:27N 52°11' E 003°36'0 0.1
2018-Feb-17 19:54N 52°11' E 003°36'0 0.1
2018-Feb-17 19:30N 52°11' E 003°36'0 0.3
2018-Feb-17 18:42N 52°12' E 003°36'0 0.1
2018-Feb-17 18:18N 52°12' E 003°37'0 0.1
2018-Feb-17 17:54N 52°12' E 003°37'0 0.1
2018-Feb-17 17:27N 52°12' E 003°37'0 0.0
2018-Feb-17 16:57N 52°12' E 003°37'0 0.0
2018-Feb-17 16:27N 52°12' E 003°37'0 0.0
2018-Feb-17 15:57N 52°12' E 003°37'0 0.0
2018-Feb-17 15:24N 52°12' E 003°37'0 0.0
2018-Feb-17 15:00N 52°12' E 003°37'0 0.0
2018-Feb-17 14:30N 52°12' E 003°37'0 0.0
2018-Feb-17 14:00N 52°12' E 003°37'0 0.3
2018-Feb-17 13:27N 52°12' E 003°36'0 0.4
2018-Feb-17 13:00N 52°11' E 003°36'0 0.1
2018-Feb-17 12:15N 52°11' E 003°36'0 0.0
2018-Feb-17 12:00N 52°11' E 003°36'0 0.0
2018-Feb-17 11:27N 52°11' E 003°36'0 0.1
2018-Feb-17 11:00N 52°11' E 003°36'0 0.6
2018-Feb-17 10:28N 52°11' E 003°36'4 6.6
2018-Feb-17 09:50N 52°07' E 003°37'3 9.2
2018-Feb-17 09:30N 52°05' E 003°41'613.1
2018-Feb-17 09:00N 52°04' E 003°51'3 6.6
2018-Feb-17 08:30N 52°02' E 003°56'612.4
2018-Feb-17 08:00N 51°59' E 004°04'4 7.7
2018-Feb-17 07:30N 51°57' E 004°10'0 0.9
2018-Feb-17 07:00N 51°56' E 004°10'0 0.0
2018-Feb-17 06:30N 51°56' E 004°10'0 0.0
2018-Feb-17 06:00N 51°56' E 004°10'0 0.0
2018-Feb-17 05:30N 51°56' E 004°10'0 0.0
2018-Feb-17 05:00N 51°56' E 004°10'0 0.0
2018-Feb-17 04:30N 51°56' E 004°10'0 0.0
2018-Feb-17 03:57N 51°56' E 004°10'0 0.0
2018-Feb-17 03:30N 51°56' E 004°10'0 0.0
2018-Feb-17 02:57N 51°56' E 004°10'0 0.0
2018-Feb-17 02:30N 51°56' E 004°10'0 0.0
2018-Feb-17 02:00N 51°56' E 004°10'0 0.0
2018-Feb-17 01:27N 51°56' E 004°10'0 0.0
2018-Feb-17 01:00N 51°56' E 004°10'0 0.0
2018-Feb-17 00:27N 51°56' E 004°10'0 0.0
2018-Feb-17 00:00N 51°56' E 004°10'0 0.0
2018-Feb-16 23:30N 51°56' E 004°10'0 0.0
2018-Feb-16 22:57N 51°56' E 004°10'0 0.0
2018-Feb-16 22:27N 51°56' E 004°10'0 0.0
2018-Feb-16 22:00N 51°56' E 004°10'0 0.0
2018-Feb-16 21:27N 51°56' E 004°10'0 0.0
2018-Feb-16 21:00N 51°56' E 004°10'0 0.0
2018-Feb-16 20:24N 51°56' E 004°10'0 0.0
2018-Feb-16 19:57N 51°56' E 004°10'0 0.0
2018-Feb-16 19:27N 51°56' E 004°10'0 0.0
2018-Feb-16 19:00N 51°56' E 004°10'0 0.0
2018-Feb-16 18:27N 51°56' E 004°10'0 0.0
2018-Feb-16 18:00N 51°56' E 004°10'0 0.0
2018-Feb-16 17:24N 51°56' E 004°10'0 0.0
2018-Feb-16 16:57N 51°56' E 004°10'0 0.0
2018-Feb-16 16:21N 51°56' E 004°10'0 0.0
2018-Feb-16 15:51N 51°56' E 004°10'0 0.0
2018-Feb-16 15:27N 51°56' E 004°10'0 0.0
2018-Feb-16 15:00N 51°56' E 004°10'0 0.0
2018-Feb-16 14:30N 51°56' E 004°10'0 0.0
2018-Feb-16 14:00N 51°56' E 004°10'0 0.0
2018-Feb-16 13:30N 51°56' E 004°10'0 0.0
2018-Feb-16 13:00N 51°56' E 004°10'0 0.0
2018-Feb-16 12:21N 51°56' E 004°10'0 0.0
2018-Feb-16 12:00N 51°56' E 004°10'0 0.0
2018-Feb-16 11:21N 51°56' E 004°10'0 0.0
2018-Feb-16 11:00N 51°56' E 004°10'0 0.0
2018-Feb-16 10:27N 51°56' E 004°10'0 0.0
2018-Feb-16 09:57N 51°56' E 004°10'0 0.0
2018-Feb-16 09:24N 51°56' E 004°10'0 0.0
2018-Feb-16 08:57N 51°56' E 004°10'0 0.0
2018-Feb-16 08:21N 51°56' E 004°10'0 0.0
2018-Feb-16 07:57N 51°56' E 004°10'0 0.0
2018-Feb-16 07:21N 51°56' E 004°10'0 0.0
2018-Feb-16 07:00N 51°56' E 004°10'0 0.0
2018-Feb-16 06:27N 51°56' E 004°10'0 0.0
2018-Feb-16 06:00N 51°56' E 004°10'0 0.0
2018-Feb-16 05:30N 51°56' E 004°10'0 0.0
2018-Feb-16 05:00N 51°56' E 004°10'0 0.0
2018-Feb-16 04:30N 51°56' E 004°10'0 0.0
2018-Feb-16 03:48N 51°56' E 004°10'0 0.0
2018-Feb-16 03:27N 51°56' E 004°10'0 0.0
2018-Feb-16 03:00N 51°56' E 004°10'0 0.0
2018-Feb-16 02:30N 51°56' E 004°10'0 0.0
2018-Feb-16 02:00N 51°56' E 004°10'0 0.0
2018-Feb-16 01:30N 51°56' E 004°10'0 0.0
2018-Feb-16 01:00N 51°56' E 004°10'0 0.0
2018-Feb-16 00:30N 51°56' E 004°10'0 0.0
2018-Feb-15 23:57N 51°56' E 004°10'0 0.0
2018-Feb-15 23:30N 51°56' E 004°10'0 0.1
2018-Feb-15 23:00N 51°57' E 004°10'1 1.6
2018-Feb-15 22:30N 51°57' E 004°09'3 6.5
2018-Feb-15 22:00N 51°59' E 004°04'5 9.7
2018-Feb-15 21:30N 52°01' E 003°57'510.1
2018-Feb-15 21:00N 52°01' E 003°49'5 9.0
2018-Feb-15 20:30N 52°01' E 003°42'2 4.9
2018-Feb-15 20:00N 52°00' E 003°38'4 8.6
2018-Feb-15 19:30N 51°60' E 003°31'4 7.2
2018-Feb-15 18:59N 51°59' E 003°25'610.1
2018-Feb-15 18:24N 51°59' E 003°15'2510.5
2018-Feb-15 16:04N 51°49' E 002°39'211.9
2018-Feb-15 15:54N 51°48' E 002°37'512.1
2018-Feb-15 15:29N 51°44' E 002°32'612.0
2018-Feb-15 14:59N 51°39' E 002°26'612.0
2018-Feb-15 14:30N 51°34' E 002°20'612.5
2018-Feb-15 13:59N 51°30' E 002°13'612.2
2018-Feb-15 13:30N 51°26' E 002°06'612.4
2018-Feb-15 13:01N 51°21' E 001°59'611.7
2018-Feb-15 12:30N 51°17' E 001°54'713.4
2018-Feb-15 12:00N 51°12' E 001°47'713.4
2018-Feb-15 11:31N 51°06' E 001°41'714.7
2018-Feb-15 11:00N 51°00' E 001°34'815.1
2018-Feb-15 10:30N 50°54' E 001°28'914.7
2018-Feb-15 09:52N 50°45' E 001°24'3912.9
2018-Feb-15 06:51N 50°24' E 000°32'513.0
2018-Feb-15 06:30N 50°23' E 000°25'612.8
2018-Feb-15 06:00N 50°21' E 000°15'812.8
2018-Feb-15 05:25N 50°19' E 000°04'712.5
2018-Feb-15 04:53N 50°18' W 000°06'612.1
2018-Feb-15 04:23N 50°16' W 000°15'9511.7
2018-Feb-14 20:16N 49°51' W 002°38'413.4
2018-Feb-14 19:59N 49°50' W 002°44'1113.2
2018-Feb-14 19:10N 49°47' W 002°60'313.0
2018-Feb-14 18:56N 49°46' W 003°04'  
2018-Feb-09 00:30N 28°28' W 015°48'  
Track history (hours):
 
Tides and Currents Weather Stations Pressure Air Temp Water Temp Dewpoint Dewpoint Depression Visibility Wind Speed Wind Dir Waves Ship Positions

Vail Spirit

Last reported at 2018-Feb-17 22:48 UTC. Time now 2018-Feb-17 23:18 UTC.
Position N 52°11' E 003°36'.

Length 275 m; draft 15 m.

Type: Tanker. MMSI: 311000338.

Date/timePositionNaut miles runAvg speedWind from/ knotsBaromVisibWave heightAir tempDewpointWater temp
2018-Feb-17 22:48N 52°11' E 003°36'0 0.0
2018-Feb-17 22:30N 52°11' E 003°36'0 0.0
2018-Feb-17 22:00N 52°11' E 003°36'0 0.0
2018-Feb-17 21:27N 52°11' E 003°36'0 0.0
2018-Feb-17 20:57N 52°11' E 003°36'0 0.0
2018-Feb-17 20:27N 52°11' E 003°36'0 0.1
2018-Feb-17 19:54N 52°11' E 003°36'0 0.1
2018-Feb-17 19:30N 52°11' E 003°36'0 0.3
2018-Feb-17 18:42N 52°12' E 003°36'0 0.1
2018-Feb-17 18:18N 52°12' E 003°37'0 0.1
2018-Feb-17 17:54N 52°12' E 003°37'0 0.1
2018-Feb-17 17:27N 52°12' E 003°37'0 0.0
2018-Feb-17 16:57N 52°12' E 003°37'0 0.0
2018-Feb-17 16:27N 52°12' E 003°37'0 0.0
2018-Feb-17 15:57N 52°12' E 003°37'0 0.0
2018-Feb-17 15:24N 52°12' E 003°37'0 0.0
2018-Feb-17 15:00N 52°12' E 003°37'0 0.0
2018-Feb-17 14:30N 52°12' E 003°37'0 0.0
2018-Feb-17 14:00N 52°12' E 003°37'0 0.3
2018-Feb-17 13:27N 52°12' E 003°36'0 0.4
2018-Feb-17 13:00N 52°11' E 003°36'0 0.1
2018-Feb-17 12:15N 52°11' E 003°36'0 0.0
2018-Feb-17 12:00N 52°11' E 003°36'0 0.0
2018-Feb-17 11:27N 52°11' E 003°36'0 0.1
2018-Feb-17 11:00N 52°11' E 003°36'0 0.6
2018-Feb-17 10:28N 52°11' E 003°36'4 6.6
2018-Feb-17 09:50N 52°07' E 003°37'3 9.2
2018-Feb-17 09:30N 52°05' E 003°41'613.1
2018-Feb-17 09:00N 52°04' E 003°51'3 6.6
2018-Feb-17 08:30N 52°02' E 003°56'612.4
2018-Feb-17 08:00N 51°59' E 004°04'4 7.7
2018-Feb-17 07:30N 51°57' E 004°10'0 0.9
2018-Feb-17 07:00N 51°56' E 004°10'0 0.0
2018-Feb-17 06:30N 51°56' E 004°10'0 0.0
2018-Feb-17 06:00N 51°56' E 004°10'0 0.0
2018-Feb-17 05:30N 51°56' E 004°10'0 0.0
2018-Feb-17 05:00N 51°56' E 004°10'0 0.0
2018-Feb-17 04:30N 51°56' E 004°10'0 0.0
2018-Feb-17 03:57N 51°56' E 004°10'0 0.0
2018-Feb-17 03:30N 51°56' E 004°10'0 0.0
2018-Feb-17 02:57N 51°56' E 004°10'0 0.0
2018-Feb-17 02:30N 51°56' E 004°10'0 0.0
2018-Feb-17 02:00N 51°56' E 004°10'0 0.0
2018-Feb-17 01:27N 51°56' E 004°10'0 0.0
2018-Feb-17 01:00N 51°56' E 004°10'0 0.0
2018-Feb-17 00:27N 51°56' E 004°10'0 0.0
2018-Feb-17 00:00N 51°56' E 004°10'0 0.0
2018-Feb-16 23:30N 51°56' E 004°10'0 0.0
2018-Feb-16 22:57N 51°56' E 004°10'0 0.0
2018-Feb-16 22:27N 51°56' E 004°10'0 0.0
2018-Feb-16 22:00N 51°56' E 004°10'0 0.0
2018-Feb-16 21:27N 51°56' E 004°10'0 0.0
2018-Feb-16 21:00N 51°56' E 004°10'0 0.0
2018-Feb-16 20:24N 51°56' E 004°10'0 0.0
2018-Feb-16 19:57N 51°56' E 004°10'0 0.0
2018-Feb-16 19:27N 51°56' E 004°10'0 0.0
2018-Feb-16 19:00N 51°56' E 004°10'0 0.0
2018-Feb-16 18:27N 51°56' E 004°10'0 0.0
2018-Feb-16 18:00N 51°56' E 004°10'0 0.0
2018-Feb-16 17:24N 51°56' E 004°10'0 0.0
2018-Feb-16 16:57N 51°56' E 004°10'0 0.0
2018-Feb-16 16:21N 51°56' E 004°10'0 0.0
2018-Feb-16 15:51N 51°56' E 004°10'0 0.0
2018-Feb-16 15:27N 51°56' E 004°10'0 0.0
2018-Feb-16 15:00N 51°56' E 004°10'0 0.0
2018-Feb-16 14:30N 51°56' E 004°10'0 0.0
2018-Feb-16 14:00N 51°56' E 004°10'0 0.0
2018-Feb-16 13:30N 51°56' E 004°10'0 0.0
2018-Feb-16 13:00N 51°56' E 004°10'0 0.0
2018-Feb-16 12:21N 51°56' E 004°10'0 0.0
2018-Feb-16 12:00N 51°56' E 004°10'0 0.0
2018-Feb-16 11:21N 51°56' E 004°10'0 0.0
2018-Feb-16 11:00N 51°56' E 004°10'0 0.0
2018-Feb-16 10:27N 51°56' E 004°10'0 0.0
2018-Feb-16 09:57N 51°56' E 004°10'0 0.0
2018-Feb-16 09:24N 51°56' E 004°10'0 0.0
2018-Feb-16 08:57N 51°56' E 004°10'0 0.0
2018-Feb-16 08:21N 51°56' E 004°10'0 0.0
2018-Feb-16 07:57N 51°56' E 004°10'0 0.0
2018-Feb-16 07:21N 51°56' E 004°10'0 0.0
2018-Feb-16 07:00N 51°56' E 004°10'0 0.0
2018-Feb-16 06:27N 51°56' E 004°10'0 0.0
2018-Feb-16 06:00N 51°56' E 004°10'0 0.0
2018-Feb-16 05:30N 51°56' E 004°10'0 0.0
2018-Feb-16 05:00N 51°56' E 004°10'0 0.0
2018-Feb-16 04:30N 51°56' E 004°10'0 0.0
2018-Feb-16 03:48N 51°56' E 004°10'0 0.0
2018-Feb-16 03:27N 51°56' E 004°10'0 0.0
2018-Feb-16 03:00N 51°56' E 004°10'0 0.0
2018-Feb-16 02:30N 51°56' E 004°10'0 0.0
2018-Feb-16 02:00N 51°56' E 004°10'0 0.0
2018-Feb-16 01:30N 51°56' E 004°10'0 0.0
2018-Feb-16 01:00N 51°56' E 004°10'0 0.0
2018-Feb-16 00:30N 51°56' E 004°10'0 0.0
2018-Feb-15 23:57N 51°56' E 004°10'0 0.0
2018-Feb-15 23:30N 51°56' E 004°10'0 0.1
2018-Feb-15 23:00N 51°57' E 004°10'1 1.6
2018-Feb-15 22:30N 51°57' E 004°09'3 6.5
2018-Feb-15 22:00N 51°59' E 004°04'5 9.7
2018-Feb-15 21:30N 52°01' E 003°57'510.1
2018-Feb-15 21:00N 52°01' E 003°49'5 9.0
2018-Feb-15 20:30N 52°01' E 003°42'2 4.9
2018-Feb-15 20:00N 52°00' E 003°38'4 8.6
2018-Feb-15 19:30N 51°60' E 003°31'4 7.2
2018-Feb-15 18:59N 51°59' E 003°25'610.1
2018-Feb-15 18:24N 51°59' E 003°15'2510.5
2018-Feb-15 16:04N 51°49' E 002°39'211.9
2018-Feb-15 15:54N 51°48' E 002°37'512.1
2018-Feb-15 15:29N 51°44' E 002°32'612.0
2018-Feb-15 14:59N 51°39' E 002°26'612.0
2018-Feb-15 14:30N 51°34' E 002°20'612.5
2018-Feb-15 13:59N 51°30' E 002°13'612.2
2018-Feb-15 13:30N 51°26' E 002°06'612.4
2018-Feb-15 13:01N 51°21' E 001°59'611.7
2018-Feb-15 12:30N 51°17' E 001°54'713.4
2018-Feb-15 12:00N 51°12' E 001°47'713.4
2018-Feb-15 11:31N 51°06' E 001°41'714.7
2018-Feb-15 11:00N 51°00' E 001°34'815.1
2018-Feb-15 10:30N 50°54' E 001°28'914.7
2018-Feb-15 09:52N 50°45' E 001°24'3912.9
2018-Feb-15 06:51N 50°24' E 000°32'513.0
2018-Feb-15 06:30N 50°23' E 000°25'612.8
2018-Feb-15 06:00N 50°21' E 000°15'812.8
2018-Feb-15 05:25N 50°19' E 000°04'712.5
2018-Feb-15 04:53N 50°18' W 000°06'612.1
2018-Feb-15 04:23N 50°16' W 000°15'9511.7
2018-Feb-14 20:16N 49°51' W 002°38'413.4
2018-Feb-14 19:59N 49°50' W 002°44'1113.2
2018-Feb-14 19:10N 49°47' W 002°60'313.0
2018-Feb-14 18:56N 49°46' W 003°04'  
2018-Feb-09 00:30N 28°28' W 015°48'  

Dump ship's entire track history